createdAt,value
2019-04-27T00:00:35.801Z,12.90
2019-04-27T00:01:35.749Z,13.10
2019-04-27T00:02:36.829Z,13.50
2019-04-27T00:03:41.177Z,12.30
2019-04-27T00:04:35.672Z,12.90
2019-04-27T00:05:35.635Z,12.70
2019-04-27T00:06:38.237Z,12.50
2019-04-27T00:07:35.657Z,12.90
2019-04-27T00:08:39.014Z,13.10
2019-04-27T00:09:35.563Z,12.50
2019-04-27T00:10:35.549Z,12.90
2019-04-27T00:11:37.397Z,13.00
2019-04-27T00:12:35.467Z,12.20
2019-04-27T00:13:40.470Z,13.40
2019-04-27T00:14:35.410Z,12.60
2019-04-27T00:15:36.621Z,12.90
2019-04-27T00:16:35.357Z,12.20
2019-04-27T00:17:45.920Z,12.60
2019-04-27T00:18:35.313Z,12.20
2019-04-27T00:19:35.540Z,11.40
2019-04-27T00:20:35.261Z,12.40
2019-04-27T00:21:35.234Z,12.50
2019-04-27T00:22:35.205Z,11.30
2019-04-27T00:23:35.185Z,12.00
2019-04-27T00:24:35.815Z,11.60
2019-04-27T00:25:35.151Z,11.80
2019-04-27T00:26:35.107Z,11.90
2019-04-27T00:27:35.082Z,11.70
2019-04-27T00:28:35.057Z,11.50
2019-04-27T00:29:35.028Z,11.20
2019-04-27T00:30:35.625Z,11.80
2019-04-27T00:31:34.987Z,12.20
2019-04-27T00:32:34.949Z,11.70
2019-04-27T00:33:35.022Z,11.50
2019-04-27T00:34:34.890Z,11.10
2019-04-27T00:35:34.870Z,11.30
2019-04-27T00:36:35.263Z,11.30
2019-04-27T00:37:34.825Z,11.00
2019-04-27T00:38:34.802Z,11.40
2019-04-27T00:39:34.778Z,11.30
2019-04-27T00:40:34.753Z,11.10
2019-04-27T00:41:34.719Z,10.80
2019-04-27T00:42:35.717Z,10.60
2019-04-27T00:43:34.672Z,11.00
2019-04-27T00:44:34.643Z,10.90
2019-04-27T00:45:34.638Z,11.60
2019-04-27T00:46:34.590Z,10.50
2019-04-27T00:47:35.077Z,10.20
2019-04-27T00:48:34.575Z,10.80
2019-04-27T00:49:34.524Z,10.20
2019-04-27T00:50:34.489Z,10.30
2019-04-27T00:51:34.472Z,10.90
2019-04-27T00:52:34.869Z,9.80
2019-04-27T00:53:34.498Z,10.00
2019-04-27T00:54:34.421Z,10.00
2019-04-27T00:55:35.501Z,9.60
2019-04-27T00:56:34.452Z,9.70
2019-04-27T00:57:34.329Z,9.30
2019-04-27T00:58:34.322Z,9.20
2019-04-27T00:59:34.297Z,9.60
2019-04-27T01:00:34.266Z,9.60
2019-04-27T01:01:34.216Z,9.20
2019-04-27T01:02:35.506Z,9.20
2019-04-27T01:04:34.171Z,9.50
2019-04-27T01:06:34.104Z,9.70
2019-04-27T01:07:34.081Z,10.20
2019-04-27T01:09:03.387Z,10.00
2019-04-27T01:09:34.024Z,9.70
2019-04-27T01:10:34.004Z,9.80
2019-04-27T01:11:34.998Z,9.90
2019-04-27T01:12:33.954Z,10.30
2019-04-27T01:13:49.647Z,10.30
2019-04-27T01:14:34.332Z,10.30
2019-04-27T01:15:50.683Z,10.40
2019-04-27T01:16:33.832Z,10.20
2019-04-27T01:17:49.020Z,10.50
2019-04-27T01:18:33.799Z,9.90
2019-04-27T01:19:40.702Z,9.60
2019-04-27T01:20:33.736Z,10.60
2019-04-27T01:21:49.639Z,10.10
2019-04-27T01:22:33.700Z,10.20
2019-04-27T01:23:54.665Z,10.40
2019-04-27T01:24:33.646Z,10.50
2019-04-27T01:25:33.654Z,10.10
2019-04-27T01:26:33.580Z,9.90
2019-04-27T01:27:33.666Z,10.50
2019-04-27T01:28:33.546Z,10.00
2019-04-27T01:29:35.563Z,9.60
2019-04-27T01:30:33.490Z,9.80
2019-04-27T01:31:33.575Z,9.20
2019-04-27T01:32:34.016Z,9.40
2019-04-27T01:33:33.478Z,9.90
2019-04-27T01:34:33.413Z,9.70
2019-04-27T01:35:33.362Z,10.80
2019-04-27T01:36:33.342Z,9.70
2019-04-27T01:37:33.320Z,10.30
2019-04-27T01:38:33.278Z,10.00
2019-04-27T01:39:33.277Z,9.70
2019-04-27T01:40:33.240Z,9.40
2019-04-27T01:41:33.207Z,9.50
2019-04-27T01:42:33.180Z,9.30
2019-04-27T01:43:33.157Z,9.90
2019-04-27T01:44:33.107Z,10.00
2019-04-27T01:45:33.074Z,9.80
2019-04-27T01:46:33.100Z,10.20
2019-04-27T01:47:33.058Z,9.70
2019-04-27T01:48:33.020Z,11.10
2019-04-27T01:49:33.000Z,10.00
2019-04-27T01:50:32.968Z,10.40
2019-04-27T01:51:32.940Z,9.50
2019-04-27T01:52:32.972Z,9.20
2019-04-27T01:53:32.905Z,9.50
2019-04-27T01:54:32.868Z,10.40
2019-04-27T01:55:32.848Z,9.90
2019-04-27T01:56:32.960Z,9.80
2019-04-27T01:57:32.778Z,9.70
2019-04-27T01:58:33.847Z,9.80
2019-04-27T01:59:32.729Z,9.90
2019-04-27T02:00:32.889Z,9.50
2019-04-27T02:01:32.739Z,9.70
2019-04-27T02:02:32.693Z,9.20
2019-04-27T02:03:34.678Z,9.70
2019-04-27T02:04:32.608Z,9.50
2019-04-27T02:05:34.714Z,9.20
2019-04-27T02:06:32.569Z,9.60
2019-04-27T02:07:39.206Z,9.70
2019-04-27T02:08:32.524Z,9.30
2019-04-27T02:09:33.597Z,10.10
2019-04-27T02:10:32.461Z,9.80
2019-04-27T02:11:33.501Z,9.90
2019-04-27T02:12:32.405Z,10.40
2019-04-27T02:13:33.448Z,9.60
2019-04-27T02:14:32.354Z,9.50
2019-04-27T02:15:32.411Z,9.80
2019-04-27T02:16:32.286Z,10.00
2019-04-27T02:17:34.370Z,9.50
2019-04-27T02:18:37.469Z,9.00
2019-04-27T02:19:32.347Z,9.70
2019-04-27T02:20:32.193Z,9.90
2019-04-27T02:21:32.238Z,9.90
2019-04-27T02:22:32.142Z,9.40
2019-04-27T02:23:34.237Z,9.80
2019-04-27T02:24:32.099Z,9.60
2019-04-27T02:25:32.193Z,10.30
2019-04-27T02:26:32.048Z,9.90
2019-04-27T02:27:32.077Z,9.60
2019-04-27T02:28:31.989Z,9.00
2019-04-27T02:29:32.108Z,9.20
2019-04-27T02:30:31.978Z,9.10
2019-04-27T02:31:31.997Z,9.40
2019-04-27T02:32:31.878Z,9.80
2019-04-27T02:33:32.943Z,8.80
2019-04-27T02:34:32.266Z,9.10
2019-04-27T02:35:31.983Z,9.10
2019-04-27T02:36:31.777Z,8.90
2019-04-27T02:37:31.862Z,8.80
2019-04-27T02:38:31.743Z,8.60
2019-04-27T02:39:31.759Z,8.40
2019-04-27T02:40:31.671Z,8.80
2019-04-27T02:41:31.764Z,8.40
2019-04-27T02:42:31.623Z,8.60
2019-04-27T02:43:31.684Z,8.70
2019-04-27T02:44:31.562Z,8.70
2019-04-27T02:45:31.693Z,8.70
2019-04-27T02:46:31.730Z,9.80
2019-04-27T02:47:31.610Z,8.60
2019-04-27T02:48:31.469Z,8.50
2019-04-27T02:49:32.535Z,8.10
2019-04-27T02:50:31.402Z,8.20
2019-04-27T02:51:33.475Z,7.10
2019-04-27T02:52:31.373Z,8.70
2019-04-27T02:53:32.491Z,8.10
2019-04-27T02:54:31.330Z,8.00
2019-04-27T02:55:31.356Z,8.30
2019-04-27T02:56:31.315Z,7.80
2019-04-27T02:57:31.382Z,7.90
2019-04-27T02:58:31.706Z,7.70
2019-04-27T02:59:33.339Z,8.20
2019-04-27T03:00:31.932Z,7.50
2019-04-27T03:01:31.206Z,8.00
2019-04-27T03:02:31.100Z,7.60
2019-04-27T03:03:31.310Z,7.70
2019-04-27T03:04:31.054Z,7.80
2019-04-27T03:05:31.117Z,7.40
2019-04-27T03:06:31.029Z,7.80
2019-04-27T03:07:32.020Z,7.10
2019-04-27T03:08:30.961Z,6.70
2019-04-27T03:09:31.035Z,7.50
2019-04-27T03:10:30.903Z,7.60
2019-04-27T03:11:30.983Z,8.20
2019-04-27T03:12:30.846Z,7.80
2019-04-27T03:13:30.937Z,7.20
2019-04-27T03:14:36.147Z,7.70
2019-04-27T03:15:30.763Z,6.90
2019-04-27T03:16:30.803Z,6.90
2019-04-27T03:17:39.593Z,7.30
2019-04-27T03:18:32.785Z,6.70
2019-04-27T03:19:31.699Z,6.60
2019-04-27T03:20:30.650Z,7.40
2019-04-27T03:21:39.617Z,7.00
2019-04-27T03:22:30.580Z,7.20
2019-04-27T03:23:30.643Z,7.50
2019-04-27T03:24:30.549Z,7.40
2019-04-27T03:25:32.619Z,7.00
2019-04-27T03:26:31.112Z,7.00
2019-04-27T03:27:40.499Z,6.70
2019-04-27T03:28:30.421Z,7.10
2019-04-27T03:29:49.711Z,7.20
2019-04-27T03:30:31.617Z,7.20
2019-04-27T04:35:44.745Z,4.90
2019-04-27T04:36:22.030Z,4.90
2019-04-27T04:37:22.034Z,5.20
2019-04-27T04:38:21.961Z,4.90
2019-04-27T04:39:22.040Z,4.70
2019-04-27T04:40:23.062Z,4.30
2019-04-27T04:41:23.909Z,4.90
2019-04-27T04:42:21.847Z,4.40
2019-04-27T04:43:22.886Z,4.80
2019-04-27T04:44:21.829Z,4.90
2019-04-27T04:45:21.883Z,5.40
2019-04-27T04:46:22.812Z,4.30
2019-04-27T04:47:21.823Z,4.60
2019-04-27T04:48:21.710Z,4.10
2019-04-27T04:49:23.759Z,4.20
2019-04-27T04:50:22.764Z,4.30
2019-04-27T04:51:21.735Z,4.40
2019-04-27T04:52:21.599Z,4.10
2019-04-27T04:53:21.592Z,4.40
2019-04-27T04:54:24.623Z,4.10
2019-04-27T04:55:21.523Z,4.10
2019-04-27T04:56:21.496Z,4.10
2019-04-27T04:57:21.928Z,4.00
2019-04-27T04:58:21.433Z,4.10
2019-04-27T04:59:21.486Z,3.90
2019-04-27T05:00:21.385Z,4.10
2019-04-27T05:01:22.391Z,3.70
2019-04-27T05:02:21.356Z,3.40
2019-04-27T05:03:21.808Z,3.80
2019-04-27T05:04:21.268Z,4.40
2019-04-27T05:05:21.343Z,3.60
2019-04-27T05:06:21.234Z,3.60
2019-04-27T05:07:21.306Z,3.90
2019-04-27T05:08:21.183Z,3.70
2019-04-27T05:09:22.239Z,3.60
2019-04-27T05:10:21.121Z,3.90
2019-04-27T05:11:21.092Z,3.30
2019-04-27T05:12:21.063Z,3.40
2019-04-27T05:13:21.037Z,3.80
2019-04-27T05:14:21.007Z,3.20
2019-04-27T05:15:20.997Z,3.80
2019-04-27T05:16:20.956Z,3.20
2019-04-27T05:17:20.971Z,3.50
2019-04-27T05:18:20.906Z,3.30
2019-04-27T05:19:20.874Z,3.20
2019-04-27T05:20:24.673Z,3.00
2019-04-27T05:21:20.823Z,3.00
2019-04-27T05:22:20.798Z,3.00
2019-04-27T05:23:20.775Z,3.20
2019-04-27T05:24:20.745Z,3.10
2019-04-27T05:25:20.760Z,3.20
2019-04-27T05:26:21.763Z,3.00
2019-04-27T05:27:20.663Z,3.00
2019-04-27T05:28:20.833Z,2.70
2019-04-27T05:29:20.615Z,2.80
2019-04-27T05:30:20.644Z,3.00
2019-04-27T05:31:20.563Z,2.80
2019-04-27T05:32:20.704Z,3.10
2019-04-27T05:33:20.511Z,3.00
2019-04-27T05:34:20.562Z,2.90
2019-04-27T05:35:20.453Z,2.70
2019-04-27T05:36:20.454Z,2.70
2019-04-27T05:37:27.549Z,2.70
2019-04-27T05:38:20.381Z,2.50
2019-04-27T05:39:24.837Z,2.70
2019-04-27T05:40:20.399Z,2.70
2019-04-27T05:41:20.299Z,2.90
2019-04-27T05:42:20.311Z,2.80
2019-04-27T05:43:20.255Z,2.70
2019-04-27T05:44:20.836Z,2.70
2019-04-27T05:45:22.870Z,2.60
2019-04-27T05:46:20.190Z,2.80
2019-04-27T05:47:20.140Z,2.60
2019-04-27T05:48:27.411Z,3.00
2019-04-27T05:49:20.654Z,2.70
2019-04-27T05:50:21.938Z,2.60
2019-04-27T05:51:20.052Z,2.40
2019-04-27T05:52:20.015Z,2.60
2019-04-27T05:53:19.983Z,2.60
2019-04-27T05:54:19.992Z,2.60
2019-04-27T05:55:19.980Z,3.10
2019-04-27T05:56:21.609Z,2.80
2019-04-27T05:57:19.980Z,2.80
2019-04-27T05:58:19.849Z,2.80
2019-04-27T05:59:20.010Z,2.70
2019-04-27T06:00:19.823Z,2.70
2019-04-27T06:01:19.786Z,2.80
2019-04-27T06:02:20.375Z,2.30
2019-04-27T06:03:21.061Z,3.40
2019-04-27T06:04:19.751Z,3.20
2019-04-27T06:05:22.508Z,2.40
2019-04-27T06:06:20.086Z,2.80
2019-04-27T06:07:19.620Z,2.30
2019-04-27T06:08:21.099Z,2.50
2019-04-27T06:09:19.653Z,2.50
2019-04-27T06:10:19.925Z,2.30
2019-04-27T06:11:19.730Z,2.50
2019-04-27T06:12:19.576Z,2.40
2019-04-27T06:13:19.510Z,2.30
2019-04-27T06:14:19.462Z,2.40
2019-04-27T06:15:19.898Z,1.80
2019-04-27T06:16:19.603Z,2.50
2019-04-27T06:17:19.549Z,2.10
2019-04-27T06:18:20.674Z,2.20
2019-04-27T06:19:19.479Z,2.20
2019-04-27T06:20:19.270Z,2.40
2019-04-27T06:21:19.662Z,2.10
2019-04-27T06:22:19.225Z,2.10
2019-04-27T06:23:20.982Z,2.30
2019-04-27T06:24:19.282Z,2.20
2019-04-27T06:25:21.483Z,2.00
2019-04-27T06:26:20.199Z,2.10
2019-04-27T06:27:21.088Z,2.20
2019-04-27T06:28:19.148Z,2.20
2019-04-27T06:29:19.547Z,2.10
2019-04-27T06:30:19.352Z,2.30
2019-04-27T06:31:19.641Z,2.00
2019-04-27T06:32:19.228Z,2.00
2019-04-27T06:33:29.539Z,2.40
2019-04-27T06:34:19.964Z,2.00
2019-04-27T06:35:18.882Z,1.90
2019-04-27T06:36:19.897Z,2.00
2019-04-27T06:37:19.371Z,2.60
2019-04-27T06:38:19.118Z,1.80
2019-04-27T06:39:20.518Z,2.00
2019-04-27T06:40:18.889Z,2.20
2019-04-27T06:41:18.997Z,2.00
2019-04-27T06:42:20.719Z,2.40
2019-04-27T06:43:18.946Z,2.10
2019-04-27T06:44:19.641Z,2.00
2019-04-27T06:45:19.672Z,1.90
2019-04-27T06:46:19.974Z,2.10
2019-04-27T06:47:19.124Z,2.20
2019-04-27T06:48:19.395Z,2.70
2019-04-27T06:49:19.479Z,2.40
2019-04-27T06:50:19.595Z,2.60
2019-04-27T06:51:19.602Z,2.70
2019-04-27T06:52:18.726Z,2.70
2019-04-27T06:53:19.168Z,2.80
2019-04-27T06:54:21.056Z,3.20
2019-04-27T06:55:18.869Z,3.40
2019-04-27T06:56:18.585Z,3.40
2019-04-27T06:57:19.238Z,3.80
2019-04-27T06:58:19.941Z,3.30
2019-04-27T06:59:18.604Z,3.60
2019-04-27T07:00:19.007Z,3.00
2019-04-27T07:01:19.077Z,3.60
2019-04-27T07:02:19.046Z,3.40
2019-04-27T07:03:18.928Z,3.60
2019-04-27T07:04:19.564Z,3.40
2019-04-27T07:05:20.431Z,3.20
2019-04-27T07:06:18.725Z,3.30
2019-04-27T07:07:19.542Z,3.00
2019-04-27T07:08:18.610Z,3.30
2019-04-27T07:09:24.826Z,2.90
2019-04-27T07:10:18.618Z,3.10
2019-04-27T07:11:19.688Z,2.70
2019-04-27T07:12:19.076Z,2.80
2019-04-27T07:13:19.585Z,2.90
2019-04-27T07:14:19.531Z,2.50
2019-04-27T07:15:20.136Z,3.20
2019-04-27T07:16:19.540Z,3.30
2019-04-27T07:17:19.095Z,3.30
2019-04-27T07:18:18.627Z,2.80
2019-04-27T07:19:24.387Z,2.90
2019-04-27T07:20:18.909Z,3.00
2019-04-27T07:21:26.339Z,3.30
2019-04-27T07:22:17.650Z,2.90
2019-04-27T07:23:20.698Z,3.20
2019-04-27T07:24:19.392Z,2.80
2019-04-27T07:25:18.906Z,2.90
2019-04-27T07:26:19.105Z,3.20
2019-04-27T07:27:19.141Z,3.00
2019-04-27T07:28:21.812Z,2.90
2019-04-27T07:29:25.377Z,2.70
2019-04-27T07:30:18.999Z,3.30
2019-04-27T07:31:25.377Z,3.20
2019-04-27T07:32:19.071Z,3.00
2019-04-27T07:33:18.692Z,3.10
2019-04-27T07:34:18.789Z,2.80
2019-04-27T07:35:17.308Z,3.20
2019-04-27T07:36:18.798Z,3.40
2019-04-27T07:37:17.328Z,2.90
2019-04-27T07:38:19.081Z,3.00
2019-04-27T07:39:19.017Z,3.00
2019-04-27T07:40:18.760Z,2.90
2019-04-27T07:41:17.131Z,3.00
2019-04-27T07:42:20.812Z,3.10
2019-04-27T07:43:18.775Z,3.00
2019-04-27T07:44:23.816Z,2.70
2019-04-27T07:45:17.021Z,3.00
2019-04-27T07:46:18.510Z,2.90
2019-04-27T07:47:16.993Z,3.00
2019-04-27T07:48:18.788Z,3.00
2019-04-27T07:49:16.950Z,3.20
2019-04-27T07:50:17.033Z,3.10
2019-04-27T07:51:29.592Z,3.00
2019-04-27T07:52:18.553Z,3.30
2019-04-27T07:53:16.853Z,2.80
2019-04-27T07:54:16.888Z,2.80
2019-04-27T07:55:18.571Z,3.10
2019-04-27T07:56:16.782Z,3.10
2019-04-27T07:57:16.726Z,3.60
2019-04-27T07:58:16.800Z,3.50
2019-04-27T07:59:16.684Z,3.20
2019-04-27T08:00:19.124Z,3.50
2019-04-27T08:01:16.638Z,3.10
2019-04-27T08:02:23.367Z,3.50
2019-04-27T08:03:16.561Z,3.80
2019-04-27T08:04:18.823Z,3.70
2019-04-27T08:05:16.513Z,3.90
2019-04-27T08:06:18.978Z,3.90
2019-04-27T08:07:16.467Z,3.90
2019-04-27T08:08:25.366Z,3.60
2019-04-27T08:09:16.415Z,3.90
2019-04-27T08:10:16.426Z,3.20
2019-04-27T08:11:16.345Z,4.00
2019-04-27T08:12:16.366Z,3.70
2019-04-27T08:13:16.296Z,3.90
2019-04-27T08:14:18.599Z,3.50
2019-04-27T08:15:16.263Z,3.70
2019-04-27T08:16:38.771Z,4.10
2019-04-27T08:17:16.224Z,3.70
2019-04-27T08:18:16.226Z,3.90
2019-04-27T08:19:16.134Z,3.80
2019-04-27T08:20:16.120Z,4.20
2019-04-27T08:21:16.173Z,4.10
2019-04-27T08:22:16.135Z,3.90
2019-04-27T08:23:16.047Z,4.20
2019-04-27T08:24:16.042Z,3.50
2019-04-27T08:25:15.971Z,4.50
2019-04-27T08:26:16.071Z,5.70
2019-04-27T08:27:15.950Z,5.70
2019-04-27T08:29:15.877Z,6.30
2019-04-27T10:42:12.014Z,3.80
2019-04-27T10:43:11.743Z,4.10
2019-04-27T10:44:19.575Z,4.60
2019-04-27T10:45:11.694Z,4.10
2019-04-27T10:46:32.694Z,4.60
2019-04-27T10:47:11.620Z,4.50
2019-04-27T10:48:12.669Z,4.00
2019-04-27T10:49:11.585Z,3.90
2019-04-27T10:50:11.661Z,4.00
2019-04-27T10:51:11.562Z,4.30
2019-04-27T10:52:12.624Z,3.90
2019-04-27T10:53:11.509Z,3.90
2019-04-27T10:54:12.517Z,4.00
2019-04-27T10:55:11.454Z,3.80
2019-04-27T10:56:12.454Z,4.10
2019-04-27T10:57:11.396Z,3.80
2019-04-27T10:58:11.428Z,4.70
2019-04-27T10:59:11.338Z,4.20
2019-04-27T11:00:11.317Z,4.80
2019-04-27T11:01:11.272Z,4.60
2019-04-27T11:02:11.367Z,4.40
2019-04-27T11:03:11.197Z,4.10
2019-04-27T11:04:11.345Z,4.20
2019-04-27T11:05:11.146Z,2.70
2019-04-27T11:06:11.183Z,2.20
2019-04-27T11:07:11.120Z,2.00
2019-04-27T11:08:11.193Z,2.20
2019-04-27T11:09:11.062Z,2.10
2019-04-27T11:10:11.105Z,1.90
2019-04-27T11:11:11.039Z,1.90
2019-04-27T11:12:11.027Z,1.90
2019-04-27T11:13:10.961Z,1.90
2019-04-27T11:14:10.932Z,1.70
2019-04-27T11:15:10.937Z,2.10
2019-04-27T11:16:10.891Z,2.50
2019-04-27T11:17:10.863Z,2.40
2019-04-27T11:18:10.911Z,2.80
2019-04-27T11:19:11.941Z,3.00
2019-04-27T11:20:10.850Z,2.70
2019-04-27T11:21:10.744Z,3.10
2019-04-27T11:22:10.816Z,3.20
2019-04-27T11:23:12.393Z,2.90
2019-04-27T11:24:11.763Z,3.40
2019-04-27T11:25:10.631Z,3.00
2019-04-27T11:26:10.611Z,3.20
2019-04-27T11:27:10.641Z,3.30
2019-04-27T11:28:10.663Z,3.40
2019-04-27T11:29:10.533Z,3.20
2019-04-27T11:30:11.619Z,3.80
2019-04-27T11:31:10.467Z,3.50
2019-04-27T11:32:25.012Z,3.30
2019-04-27T11:33:10.426Z,3.90
2019-04-27T11:34:10.578Z,3.80
2019-04-27T11:35:10.401Z,3.60
2019-04-27T11:36:17.157Z,3.50
2019-04-27T11:37:10.338Z,3.60
2019-04-27T11:38:19.046Z,3.70
2019-04-27T11:39:10.278Z,3.80
2019-04-27T11:40:10.315Z,3.70
2019-04-27T11:41:10.344Z,3.80
2019-04-27T11:42:10.389Z,3.50
2019-04-27T11:43:10.175Z,3.50
2019-04-27T11:44:18.146Z,4.10
2019-04-27T11:45:10.138Z,4.00
2019-04-27T11:47:10.095Z,4.00
2019-04-27T11:48:11.086Z,4.00
2019-04-27T11:49:09.999Z,4.30
2019-04-27T11:50:16.680Z,4.30
2019-04-27T11:51:11.087Z,3.40
2019-04-27T11:52:09.946Z,2.60
2019-04-27T11:53:19.838Z,2.80
2019-04-27T11:54:16.559Z,2.70
2019-04-27T11:55:09.844Z,2.70
2019-04-27T11:56:17.770Z,2.80
2019-04-27T11:57:09.802Z,2.40
2019-04-27T11:58:09.812Z,2.90
2019-04-27T11:59:09.829Z,2.90
2019-04-27T12:00:16.690Z,2.30
2019-04-27T12:01:09.839Z,3.00
2019-04-27T12:02:25.851Z,2.50
2019-04-27T12:03:09.800Z,2.40
2019-04-27T14:23:39.538Z,3.30
2019-04-27T14:24:38.538Z,3.40
2019-04-27T14:25:36.827Z,3.50
2019-04-27T14:26:38.495Z,3.30
2019-04-27T14:27:40.326Z,3.20
2019-04-27T14:28:43.573Z,3.60
2019-04-27T14:29:36.698Z,3.50
2019-04-27T14:30:40.083Z,3.20
2019-04-27T14:31:36.641Z,3.00
2019-04-27T14:32:38.825Z,3.40
2019-04-27T14:33:39.603Z,3.80
2019-04-27T14:34:36.679Z,3.20
2019-04-27T14:35:36.561Z,3.10
2019-04-27T14:36:38.052Z,3.20
2019-04-27T14:37:36.507Z,3.20
2019-04-27T14:38:38.553Z,3.30
2019-04-27T14:39:36.463Z,3.10
2019-04-27T14:40:43.181Z,3.30
2019-04-27T14:41:36.406Z,2.70
2019-04-27T14:42:44.142Z,3.00
2019-04-27T14:43:36.327Z,2.90
2019-04-27T14:44:43.080Z,3.10
2019-04-27T14:45:38.272Z,2.90
2019-04-27T14:46:38.806Z,3.10
2019-04-27T14:47:38.420Z,2.70
2019-04-27T14:48:45.330Z,3.00
2019-04-27T14:49:36.201Z,3.10
2019-04-27T14:50:40.241Z,3.30
2019-04-27T14:51:36.170Z,3.10
2019-04-27T14:52:39.059Z,3.20
2019-04-27T14:53:36.081Z,3.10
2019-04-27T14:54:46.032Z,2.60
2019-04-27T14:55:36.039Z,3.20
2019-04-27T14:56:36.098Z,3.00
2019-04-27T14:57:36.006Z,2.90
2019-04-27T14:58:36.030Z,3.30
2019-04-27T14:59:35.960Z,3.40
2019-04-27T15:00:38.454Z,3.30
2019-04-27T15:01:37.680Z,3.40
2019-04-27T15:02:36.969Z,3.40
2019-04-27T15:03:35.816Z,3.10
2019-04-27T15:04:37.608Z,3.20
2019-04-27T15:05:35.765Z,3.60
2019-04-27T15:06:35.738Z,4.10
2019-04-27T15:07:35.707Z,4.10
2019-04-27T15:08:38.331Z,3.50
2019-04-27T15:09:36.040Z,3.60
2019-04-27T15:10:36.231Z,3.50
2019-04-27T15:11:35.601Z,3.60
2019-04-27T15:12:35.684Z,3.70
2019-04-27T15:13:37.776Z,3.50
2019-04-27T15:14:35.619Z,3.60
2019-04-27T15:15:35.515Z,4.00
2019-04-27T15:16:37.774Z,3.70
2019-04-27T15:17:35.456Z,3.70
2019-04-27T15:18:39.911Z,3.70
2019-04-27T15:19:35.401Z,3.80
2019-04-27T15:20:36.078Z,3.80
2019-04-27T15:21:40.769Z,4.10
2019-04-27T15:22:36.412Z,3.70
2019-04-27T15:23:35.291Z,4.10
2019-04-27T15:24:35.265Z,4.60
2019-04-27T15:25:44.968Z,4.80
2019-04-27T15:26:35.211Z,4.80
2019-04-27T15:27:37.521Z,4.30
2019-04-27T15:28:35.204Z,4.30
2019-04-27T15:29:35.234Z,4.70
2019-04-27T15:30:35.248Z,4.80
2019-04-27T15:31:35.109Z,4.50
2019-04-27T15:32:39.470Z,5.50
2019-04-27T15:33:35.024Z,3.20
2019-04-27T15:34:35.693Z,2.30
2019-04-27T15:35:35.589Z,1.50
2019-04-27T15:36:36.081Z,1.60
2019-04-27T15:37:35.434Z,1.90
2019-04-27T15:38:34.886Z,1.70
2019-04-27T15:39:34.873Z,2.10
2019-04-27T15:40:34.980Z,2.20
2019-04-27T15:41:34.832Z,2.30
2019-04-27T15:42:41.641Z,2.20
2019-04-27T15:43:34.774Z,2.00
2019-04-27T15:44:36.441Z,2.10
2019-04-27T15:45:34.850Z,2.10
2019-04-27T15:46:36.004Z,2.40
2019-04-27T15:47:34.902Z,2.50
2019-04-27T15:48:35.067Z,2.20
2019-04-27T15:49:34.877Z,2.20
2019-04-27T15:50:34.876Z,2.50
2019-04-27T15:51:34.577Z,2.20
2019-04-27T15:52:38.244Z,2.10
2019-04-27T15:53:34.517Z,2.10
2019-04-27T15:54:37.941Z,2.60
2019-04-27T15:55:37.463Z,2.40
2019-04-27T15:56:35.308Z,2.70
2019-04-27T15:57:34.428Z,2.50
2019-04-27T15:58:34.504Z,2.20
2019-04-27T15:59:37.832Z,2.30
2019-04-27T16:00:34.458Z,2.30
2019-04-27T16:01:35.935Z,2.20
2019-04-27T16:02:44.479Z,2.40
2019-04-27T16:03:34.334Z,2.90
2019-04-27T16:04:38.127Z,2.60
2019-04-27T16:05:36.029Z,2.50
2019-04-27T16:06:38.305Z,3.10
2019-04-27T16:07:34.141Z,3.10
2019-04-27T16:08:38.137Z,3.50
2019-04-27T16:09:34.076Z,2.90
2019-04-27T16:10:37.297Z,3.10
2019-04-27T16:11:34.028Z,3.60
2019-04-27T16:12:38.192Z,3.50
2019-04-27T16:13:34.108Z,2.90
2019-04-27T16:14:36.451Z,2.70
2019-04-27T16:15:33.938Z,3.60
2019-04-27T16:16:33.921Z,3.40
2019-04-27T16:17:34.939Z,3.10
2019-04-27T16:18:33.848Z,3.10
2019-04-27T16:19:33.838Z,2.30
2019-04-27T16:20:34.137Z,2.70
2019-04-27T16:21:39.805Z,3.00
2019-04-27T16:22:33.839Z,2.40
2019-04-27T16:23:40.289Z,2.60
2019-04-27T16:24:33.695Z,3.00
2019-04-27T16:25:47.806Z,2.60
2019-04-27T16:26:33.656Z,2.50
2019-04-27T16:27:41.667Z,2.90
2019-04-27T16:28:33.612Z,2.50
2019-04-27T16:29:33.572Z,2.60
2019-04-27T16:30:45.577Z,2.70
2019-04-27T16:31:36.062Z,2.70
2019-04-27T16:32:35.554Z,3.30
2019-04-27T16:33:33.469Z,2.90
2019-04-27T16:34:39.603Z,2.90
2019-04-27T16:35:33.414Z,2.70
2019-04-27T16:36:43.580Z,2.70
2019-04-27T16:37:33.375Z,2.80
2019-04-27T16:39:11.117Z,3.00
2019-04-27T16:39:33.307Z,3.30
2019-04-27T16:40:33.327Z,3.00
2019-04-27T16:41:37.479Z,3.30
2019-04-27T16:42:33.240Z,3.40
2019-04-27T16:43:33.243Z,3.00
2019-04-27T16:44:33.149Z,3.00
2019-04-27T16:45:33.303Z,2.90
2019-04-27T16:46:34.886Z,3.00
2019-04-27T16:47:41.168Z,2.80
2019-04-27T16:48:34.573Z,3.30
2019-04-27T16:49:33.184Z,2.70
2019-04-27T16:50:33.026Z,2.60
2019-04-27T16:51:36.899Z,3.50
2019-04-27T16:52:33.042Z,3.40
2019-04-27T16:53:38.171Z,2.70
2019-04-27T16:54:32.924Z,3.00
2019-04-27T16:55:41.766Z,2.70
2019-04-27T16:56:32.852Z,3.10
2019-04-27T16:57:37.385Z,3.20
2019-04-27T16:58:32.792Z,3.30
2019-04-27T16:59:43.375Z,3.10
2019-04-27T17:00:32.751Z,3.00
2019-04-27T17:01:32.741Z,2.80
2019-04-27T17:02:33.892Z,3.00
2019-04-27T17:03:35.781Z,2.80
2019-04-27T17:04:32.761Z,2.70
2019-04-27T17:05:34.691Z,3.30
2019-04-27T17:06:40.833Z,3.20
2019-04-27T17:07:37.657Z,3.60
2019-04-27T17:08:33.754Z,3.20
2019-04-27T17:09:36.236Z,3.50
2019-04-27T17:10:32.511Z,3.60
2019-04-27T17:11:32.522Z,3.20
2019-04-27T17:12:36.106Z,3.20
2019-04-27T17:13:32.571Z,3.30
2019-04-27T17:14:34.935Z,3.10
2019-04-27T17:15:32.550Z,3.00
2019-04-27T17:16:33.950Z,2.90
2019-04-27T17:17:32.322Z,3.20
2019-04-27T17:18:32.315Z,3.40
2019-04-27T17:19:35.772Z,3.40
2019-04-27T17:20:32.271Z,3.10
2019-04-27T17:23:13.850Z,3.10
2019-04-27T17:24:13.811Z,2.90
2019-04-27T17:25:15.417Z,3.90
2019-04-27T17:26:21.869Z,5.00
2019-04-27T17:27:16.360Z,4.30
2019-04-27T17:29:50.126Z,4.00
2019-04-27T17:30:46.170Z,3.80
2019-04-27T17:31:45.998Z,3.50
2019-04-27T17:32:48.712Z,3.70
2019-04-27T17:33:48.810Z,3.80
2019-04-27T17:34:45.973Z,3.60
2019-04-27T17:35:46.936Z,3.70
2019-04-27T17:36:49.774Z,3.90
2019-04-27T17:37:45.919Z,4.20
2019-04-27T17:38:49.157Z,3.70
2019-04-27T17:39:45.774Z,3.90
2019-04-27T17:40:45.768Z,3.40
2019-04-27T17:41:49.179Z,3.70
2019-04-27T17:43:45.672Z,3.40
2019-04-27T17:44:45.673Z,3.90
2019-04-27T17:45:45.646Z,3.50
2019-04-27T17:46:47.655Z,3.60
2019-04-27T17:47:45.567Z,3.50
2019-04-27T17:48:48.535Z,3.80
2019-04-27T17:49:45.503Z,3.90
2019-04-27T17:50:45.513Z,3.40
2019-04-27T17:51:45.462Z,4.00
2019-04-27T17:52:55.053Z,3.70
2019-04-27T17:53:45.404Z,3.40
2019-04-27T17:54:47.532Z,3.60
2019-04-27T17:55:45.377Z,3.60
2019-04-27T17:56:49.590Z,3.80
2019-04-27T17:57:45.313Z,3.60
2019-04-27T17:58:45.395Z,3.60
2019-04-27T17:59:45.241Z,3.20
2019-04-27T18:00:45.296Z,3.40
2019-04-27T18:01:45.203Z,3.60
2019-04-27T18:02:45.285Z,3.20
2019-04-27T18:03:45.133Z,3.20
2019-04-27T18:04:48.410Z,3.00
2019-04-27T18:05:50.594Z,3.50
2019-04-27T18:06:45.146Z,3.00
2019-04-27T18:07:45.046Z,2.90
2019-04-27T18:08:45.196Z,3.30
2019-04-27T18:09:44.982Z,3.00
2019-04-27T18:10:46.069Z,2.90
2019-04-27T18:11:44.971Z,3.30
2019-04-27T18:12:48.739Z,3.10
2019-04-27T18:13:44.903Z,2.90
2019-04-27T18:14:45.007Z,3.50
2019-04-27T18:15:45.673Z,3.20
2019-04-27T18:16:45.896Z,4.00
2019-04-27T18:17:48.377Z,3.80
2019-04-27T18:18:44.792Z,4.40
2019-04-27T18:19:45.599Z,3.90
2019-04-27T18:21:01.332Z,4.10
2019-04-27T18:21:44.687Z,3.80
2019-04-27T18:22:44.720Z,3.90
2019-04-27T18:23:45.348Z,4.30
2019-04-27T18:24:44.674Z,4.20
2019-04-27T18:25:44.598Z,3.90
2019-04-27T18:26:51.510Z,4.40
2019-04-27T18:27:44.588Z,4.20
2019-04-27T18:28:45.921Z,5.20
2019-04-27T18:29:44.480Z,6.50
2019-04-27T18:30:44.582Z,6.00
2019-04-27T18:31:46.422Z,5.30
2019-04-27T18:32:44.443Z,4.80
2019-04-27T18:33:44.366Z,4.70
2019-04-27T18:34:45.219Z,4.80
2019-04-27T18:35:44.316Z,4.50
2019-04-27T18:36:44.967Z,4.90
2019-04-27T18:37:44.250Z,4.50
2019-04-27T18:38:44.275Z,4.50
2019-04-27T18:39:45.430Z,4.10
2019-04-27T20:34:14.140Z,5.80
2019-04-27T20:35:04.264Z,5.60
2019-04-27T20:36:04.323Z,6.60
2019-04-27T20:37:04.327Z,5.40
2019-04-27T20:38:06.197Z,5.60
2019-04-27T20:39:05.839Z,5.30
2019-04-27T20:40:05.126Z,5.50
2019-04-27T20:41:04.050Z,6.10
2019-04-27T20:42:04.085Z,6.30
2019-04-27T20:43:04.008Z,5.50
2019-04-27T20:44:05.030Z,6.10
2019-04-27T20:45:03.960Z,5.30
2019-04-27T20:46:12.015Z,6.00
2019-04-27T20:47:03.944Z,5.20
2019-04-27T20:48:03.928Z,5.20
2019-04-27T20:49:03.865Z,5.00
2019-04-27T20:50:03.955Z,5.60
2019-04-27T20:51:03.786Z,5.00
2019-04-27T20:52:04.887Z,5.90